createdAt,value
2023-03-31T00:08:02.285Z,3.03
2023-03-31T00:18:06.038Z,3.42
2023-03-31T00:28:10.680Z,3.47
2023-03-31T00:38:16.064Z,3.25
2023-03-31T00:48:21.618Z,2.97
2023-03-31T00:58:28.566Z,3.00
2023-03-31T01:08:36.539Z,2.97
2023-03-31T01:18:39.991Z,2.97
2023-03-31T01:28:48.310Z,3.72
2023-03-31T01:39:17.473Z,3.72
2023-03-31T01:49:28.097Z,3.47
2023-03-31T01:59:35.904Z,3.28
2023-03-31T02:09:45.478Z,3.60
2023-03-31T02:19:53.015Z,3.35
2023-03-31T02:30:00.387Z,3.47
2023-03-31T02:40:10.488Z,2.90
2023-03-31T02:50:15.308Z,3.03
2023-03-31T03:00:27.518Z,2.78
2023-03-31T03:10:44.217Z,2.85
2023-03-31T03:20:49.241Z,3.08
2023-03-31T03:30:54.480Z,3.30
2023-03-31T03:40:57.719Z,3.00
2023-03-31T03:51:02.563Z,3.28
2023-03-31T04:01:05.903Z,3.20
2023-03-31T04:11:16.616Z,2.97
2023-03-31T04:21:23.735Z,2.92
2023-03-31T04:31:30.989Z,3.35
2023-03-31T04:41:34.373Z,3.30
2023-03-31T04:51:39.072Z,3.63
2023-03-31T05:01:45.838Z,3.70
2023-03-31T05:11:50.719Z,3.85
2023-03-31T05:21:54.012Z,3.63
2023-03-31T05:31:58.675Z,3.35
2023-03-31T05:42:02.415Z,2.50
2023-03-31T05:52:07.300Z,2.75
2023-03-31T06:02:13.644Z,2.55
2023-03-31T06:12:18.306Z,2.53
2023-03-31T06:22:21.491Z,2.60
2023-03-31T06:32:26.161Z,3.47
2023-03-31T06:42:29.395Z,3.90
2023-03-31T06:52:34.005Z,4.30
2023-03-31T07:02:38.172Z,4.25
2023-03-31T07:12:42.854Z,4.20
2023-03-31T07:22:47.566Z,4.10
2023-03-31T07:32:54.522Z,4.00
2023-03-31T07:42:58.044Z,4.65
2023-03-31T07:53:02.770Z,4.57
2023-03-31T08:03:07.097Z,4.93
2023-03-31T08:13:11.728Z,4.72
2023-03-31T08:23:14.964Z,4.70
2023-03-31T08:33:19.588Z,4.22
2023-03-31T08:43:31.248Z,3.65
2023-03-31T08:53:40.701Z,4.78
2023-03-31T09:03:52.128Z,5.90
2023-03-31T09:14:16.253Z,6.30
2023-03-31T09:24:23.841Z,6.13
2023-03-31T09:34:31.422Z,6.05
2023-03-31T09:44:39.085Z,5.18
2023-03-31T09:54:50.839Z,5.07
2023-03-31T10:04:54.223Z,5.88
2023-03-31T10:15:18.280Z,6.00
2023-03-31T10:25:25.780Z,5.85
2023-03-31T10:35:34.393Z,5.38
2023-03-31T10:45:45.648Z,4.95
2023-03-31T10:56:15.441Z,4.65
2023-03-31T11:06:27.981Z,4.10
2023-03-31T11:16:40.247Z,5.07
2023-03-31T11:26:51.647Z,3.45
2023-03-31T11:37:25.143Z,3.03
2023-03-31T11:47:32.099Z,3.80
2023-03-31T11:57:41.633Z,3.30
2023-03-31T12:07:49.308Z,2.50
2023-03-31T12:18:00.422Z,2.42
2023-03-31T12:28:04.548Z,1.88
2023-03-31T12:38:20.442Z,0.63
2023-03-31T12:49:04.810Z,0.70
2023-03-31T12:59:30.814Z,0.80
2023-03-31T13:09:48.336Z,0.68
2023-03-31T13:19:54.214Z,0.90
2023-03-31T13:29:57.870Z,1.00
2023-03-31T13:40:28.009Z,1.00
2023-03-31T13:50:40.936Z,1.02
2023-03-31T14:00:52.376Z,1.20
2023-03-31T14:10:55.649Z,1.17
2023-03-31T14:21:11.365Z,1.38
2023-03-31T14:31:22.099Z,1.13
2023-03-31T14:41:30.549Z,1.42
2023-03-31T14:51:34.034Z,0.70
2023-03-31T15:01:39.788Z,0.60
2023-03-31T15:11:43.053Z,0.57
2023-03-31T15:21:54.670Z,0.50
2023-03-31T15:31:59.659Z,0.50
2023-03-31T15:42:06.980Z,0.50
2023-03-31T15:52:27.430Z,0.60
2023-03-31T16:02:41.740Z,0.90
2023-03-31T16:12:54.185Z,0.80
2023-03-31T16:23:01.125Z,1.27
2023-03-31T16:33:07.047Z,0.95
2023-03-31T16:43:14.816Z,0.80
2023-03-31T16:53:20.138Z,1.02
2023-03-31T17:03:25.407Z,0.90
2023-03-31T17:13:28.892Z,0.95
2023-03-31T17:23:34.146Z,0.80
2023-03-31T17:33:37.365Z,0.70
2023-03-31T17:43:45.800Z,0.73
2023-03-31T17:53:49.633Z,0.90
2023-03-31T18:03:56.460Z,0.90
2023-03-31T18:14:01.885Z,0.53
2023-03-31T18:24:06.811Z,0.60
2023-03-31T18:34:10.072Z,0.60
2023-03-31T18:44:16.707Z,0.70
2023-03-31T18:54:20.474Z,0.60
2023-03-31T19:04:25.359Z,0.60
2023-03-31T19:14:28.801Z,0.50
2023-03-31T19:24:33.530Z,0.50
2023-03-31T19:34:36.845Z,0.60
2023-03-31T19:44:41.500Z,0.43
2023-03-31T19:54:44.751Z,0.50
2023-03-31T20:04:49.447Z,0.87
2023-03-31T20:14:52.678Z,0.70
2023-03-31T20:24:57.239Z,0.90
2023-03-31T20:35:01.577Z,0.90
2023-03-31T20:45:07.524Z,0.80
2023-03-31T20:55:11.160Z,0.90
2023-03-31T21:05:16.680Z,0.80
2023-03-31T21:15:20.124Z,1.20
2023-03-31T21:25:25.378Z,1.13
2023-03-31T21:35:28.671Z,1.10
2023-03-31T21:45:33.476Z,0.80
2023-03-31T21:55:38.730Z,1.00
2023-03-31T22:05:43.320Z,0.83
2023-03-31T22:15:46.667Z,1.00
2023-03-31T22:25:51.354Z,0.83
2023-03-31T22:35:54.617Z,0.90
2023-03-31T22:46:02.848Z,0.90
2023-03-31T22:56:08.712Z,0.60
2023-03-31T23:06:14.542Z,0.50
2023-03-31T23:16:19.944Z,0.80
2023-03-31T23:26:27.838Z,0.90
2023-03-31T23:36:31.188Z,1.17
2023-03-31T23:46:37.806Z,0.70
2023-03-31T23:56:41.218Z,1.00
